EDT,Max TemperatureF,Mean TemperatureF,Min TemperatureF,Max Dew PointF,MeanDew PointF,Min DewpointF,Max Humidity, Mean Humidity, Min Humidity, Max Sea Level PressureIn, Mean Sea Level PressureIn, Min Sea Level PressureIn, Max VisibilityMiles, Mean VisibilityMiles, Min VisibilityMiles, Max Wind SpeedMPH, Mean Wind SpeedMPH, Max Gust SpeedMPH,PrecipitationIn, CloudCover, Events, WindDirDegrees
2013-9-1,82,76,69,72,69,66,100,84,67,29.88,29.84,29.78,10,7,0,12,5,15,0.00,4,Fog,201
2013-9-2,83,72,61,72,67,63,100,83,65,29.89,29.82,29.77,10,7,0,59,7,92,0.37,5,Fog-Rain-Thunderstorm,216
2013-9-3,72,63,54,63,59,53,100,79,57,30.07,29.94,29.86,10,5,0,15,5,20,0.00,6,Fog,311
2013-9-4,76,64,51,58,55,51,100,75,49,30.17,30.11,30.08,10,5,0,12,4,15,0.00,1,Fog,241
2013-9-5,75,65,54,61,55,44,93,69,45,30.23,30.15,30.10,10,10,10,14,7,20,0.00,3,,309
2013-9-6,74,60,45,49,45,40,100,65,29,30.29,30.24,30.15,10,6,0,12,4,14,0.00,0,Fog,39
2013-9-7,78,64,49,57,51,46,100,70,39,30.14,30.08,29.97,10,9,1,12,4,15,0.00,1,,222
2013-9-8,81,71,60,67,62,57,90,76,62,30.07,29.99,29.93,10,10,7,13,6,16,T,4,Rain,319
2013-9-9,84,71,58,70,64,56,97,79,61,30.11,30.07,30.02,10,8,1,13,5,17,0.19,4,Rain,161
2013-9-10,88,80,71,74,71,68,90,77,63,30.15,30.11,30.06,9,7,5,15,8,20,0.00,1,,206
2013-9-11,87,79,70,73,70,66,93,77,61,30.17,30.11,30.03,10,7,2,22,7,30,0.23,2,Rain,193
2013-9-12,75,69,63,70,68,63,100,92,84,30.01,29.93,29.83,10,6,1,21,7,28,0.24,5,Rain-Thunderstorm,248
2013-9-13,64,57,50,63,53,44,100,83,66,30.06,29.94,29.86,10,9,4,21,9,31,0.06,7,Rain-Thunderstorm,326
2013-9-14,65,56,47,48,44,39,93,68,43,30.19,30.14,30.07,10,10,10,9,3,13,0.00,3,,326
2013-9-15,69,56,43,56,47,43,100,76,52,30.20,30.16,30.08,10,6,0,13,3,16,T,1,Fog,203
2013-9-16,70,61,51,57,54,50,100,78,55,30.33,30.19,30.08,10,6,2,14,5,20,0.28,7,Rain,348
2013-9-17,70,57,44,53,48,45,100,73,45,30.40,30.34,30.27,10,9,2,10,5,14,0.00,1,,67
2013-9-18,72,61,49,59,53,46,90,72,53,30.25,30.19,30.13,10,10,10,10,5,13,0.00,2,,148
2013-9-19,74,68,61,63,61,59,100,82,64,30.16,30.12,30.04,10,4,0,9,4,13,T,7,Fog,195
2013-9-20,76,69,62,70,66,61,100,91,82,30.07,29.98,29.84,10,4,1,13,7,16,0.15,6,Rain,166
2013-9-21,70,63,56,67,61,55,100,94,87,29.83,29.76,29.71,10,4,0,15,6,21,1.04,7,Fog-Rain,238
2013-9-22,61,56,51,55,51,44,100,80,60,30.05,29.91,29.83,10,5,0,13,5,17,0.00,7,Fog,331
2013-9-23,56,49,42,48,44,41,93,76,59,30.17,30.12,30.05,10,10,10,10,4,13,0.00,6,,35
2013-9-24,68,53,37,49,42,36,100,73,45,30.15,30.10,30.00,10,4,0,10,4,14,0.00,1,Fog,49
2013-9-25,74,60,45,55,49,44,100,77,53,29.99,29.95,29.92,10,10,4,9,3,12,0.00,0,,57
2013-9-26,76,63,49,54,49,44,100,68,35,30.10,30.03,29.96,10,10,8,9,3,17,0.00,0,,20
2013-9-27,74,61,47,54,50,46,100,71,41,30.20,30.15,30.11,10,7,0,10,4,14,0.00,0,Fog,34
2013-9-28,74,63,52,55,52,49,93,71,49,30.26,30.20,30.16,10,10,10,12,7,14,0.00,0,,113
2013-9-29,71,62,53,60,54,48,93,78,63,30.15,30.09,30.03,10,10,2,12,4,15,0.00,2,,161
2013-9-30,70,63,55,60,57,55,100,87,73,30.07,30.04,30.02,10,5,0,12,4,15,T,6,Fog-Rain,180